createdAt,value
2023-04-07T00:00:58.973Z,24.50
2023-04-07T00:02:21.654Z,27.45
2023-04-07T00:03:44.236Z,28.15
2023-04-07T00:05:08.694Z,25.15
2023-04-07T00:06:36.676Z,27.75
2023-04-07T00:07:57.714Z,26.75
2023-04-07T00:09:23.299Z,24.85
2023-04-07T00:10:52.187Z,24.35
2023-04-07T00:12:16.410Z,21.13
2023-04-07T00:13:40.689Z,24.05
2023-04-07T00:15:02.247Z,27.17
2023-04-07T00:16:28.974Z,22.80
2023-04-07T00:18:07.852Z,27.98
2023-04-07T00:19:33.835Z,21.90
2023-04-07T00:20:57.295Z,26.55
2023-04-07T00:22:18.737Z,26.20
2023-04-07T00:23:44.029Z,25.07
2023-04-07T00:25:06.876Z,23.42
2023-04-07T00:26:31.595Z,21.63
2023-04-07T00:27:56.145Z,24.20
2023-04-07T00:29:18.853Z,24.45
2023-04-07T00:30:44.517Z,25.60
2023-04-07T00:32:09.631Z,24.08
2023-04-07T00:33:40.810Z,25.60
2023-04-07T00:35:04.833Z,23.05
2023-04-07T00:36:28.847Z,23.58
2023-04-07T00:37:49.962Z,26.15
2023-04-07T00:39:15.121Z,25.63
2023-04-07T00:40:37.656Z,23.55
2023-04-07T00:43:20.786Z,25.83
2023-04-07T00:44:45.462Z,25.02
2023-04-07T00:46:06.865Z,29.67
2023-04-07T00:48:56.179Z,25.40
2023-04-07T00:50:19.579Z,30.45
2023-04-07T00:51:42.991Z,24.52
2023-04-07T00:53:05.750Z,28.58
2023-04-07T00:54:29.233Z,25.17
2023-04-07T00:55:51.546Z,26.75
2023-04-07T00:57:14.095Z,27.90
2023-04-07T00:58:36.366Z,25.90
2023-04-07T00:59:59.493Z,24.80
2023-04-07T01:01:27.829Z,25.27
2023-04-07T01:02:58.019Z,26.30
2023-04-07T01:04:29.307Z,27.35
2023-04-07T01:05:57.489Z,27.00
2023-04-07T01:07:24.157Z,22.50
2023-04-07T01:09:04.177Z,27.00
2023-04-07T01:10:37.028Z,25.90
2023-04-07T01:12:16.262Z,27.75
2023-04-07T01:13:43.834Z,25.45
2023-04-07T01:15:18.120Z,26.05
2023-04-07T01:16:47.291Z,25.90
2023-04-07T01:18:34.834Z,26.88
2023-04-07T01:20:03.934Z,24.70
2023-04-07T01:21:30.131Z,23.75
2023-04-07T01:22:56.350Z,26.02
2023-04-07T01:24:39.711Z,26.92
2023-04-07T01:26:25.620Z,22.35
2023-04-07T01:28:01.152Z,28.48
2023-04-07T01:29:50.869Z,24.52
2023-04-07T01:31:18.906Z,22.50
2023-04-07T01:32:43.165Z,28.05
2023-04-07T01:34:05.253Z,25.80
2023-04-07T01:35:40.735Z,25.52
2023-04-07T01:37:10.184Z,25.70
2023-04-07T01:38:32.323Z,29.08
2023-04-07T01:39:54.958Z,26.38
2023-04-07T01:41:17.494Z,26.30
2023-04-07T01:42:41.019Z,26.05
2023-04-07T01:44:08.126Z,24.25
2023-04-07T01:45:34.751Z,26.33
2023-04-07T01:46:58.133Z,26.67
2023-04-07T01:48:23.168Z,23.30
2023-04-07T01:49:48.023Z,24.02
2023-04-07T01:51:12.196Z,29.23
2023-04-07T01:52:36.105Z,23.30
2023-04-07T01:54:05.250Z,26.85
2023-04-07T01:55:28.056Z,25.00
2023-04-07T01:56:57.968Z,25.70
2023-04-07T01:58:20.018Z,25.30
2023-04-07T01:59:46.248Z,27.52
2023-04-07T02:01:10.108Z,27.52
2023-04-07T02:02:35.565Z,28.92
2023-04-07T02:04:07.961Z,25.83
2023-04-07T02:05:32.306Z,28.17
2023-04-07T02:07:01.018Z,29.63
2023-04-07T02:08:36.939Z,27.27
2023-04-07T02:10:02.140Z,27.67
2023-04-07T02:11:24.951Z,26.27
2023-04-07T02:12:54.619Z,27.23
2023-04-07T02:14:21.365Z,29.88
2023-04-07T02:16:28.239Z,27.17
2023-04-07T02:18:01.153Z,28.23
2023-04-07T02:19:22.885Z,25.95
2023-04-07T02:20:46.463Z,28.52
2023-04-07T02:22:11.857Z,28.58
2023-04-07T02:24:04.618Z,28.23
2023-04-07T02:25:30.239Z,28.33
2023-04-07T02:26:52.459Z,27.73
2023-04-07T02:28:15.989Z,25.17
2023-04-07T02:29:41.153Z,26.00
2023-04-07T02:31:02.310Z,28.90
2023-04-07T02:32:48.259Z,30.30
2023-04-07T02:34:36.213Z,30.30
2023-04-07T02:36:01.284Z,29.15
2023-04-07T02:37:25.313Z,30.85
2023-04-07T02:38:47.636Z,29.13
2023-04-07T02:40:18.414Z,27.02
2023-04-07T02:41:40.851Z,25.85
2023-04-07T02:44:23.746Z,26.55
2023-04-07T02:45:47.368Z,28.08
2023-04-07T02:47:12.688Z,25.45
2023-04-07T02:48:35.060Z,32.58
2023-04-07T02:49:58.169Z,28.33
2023-04-07T02:51:19.703Z,24.23
2023-04-07T02:52:44.392Z,28.95
2023-04-07T02:54:09.598Z,27.02
2023-04-07T02:55:30.761Z,24.33
2023-04-07T02:56:52.946Z,27.33
2023-04-07T02:58:20.786Z,25.13
2023-04-07T02:59:41.931Z,30.00
2023-04-07T03:01:08.352Z,28.85
2023-04-07T03:02:30.930Z,25.52
2023-04-07T03:05:19.284Z,24.77
2023-04-07T03:06:41.954Z,26.13
2023-04-07T03:08:12.272Z,28.13
2023-04-07T03:09:34.270Z,24.77
2023-04-07T03:10:57.069Z,26.80
2023-04-07T03:12:24.150Z,25.45
2023-04-07T03:13:56.862Z,25.15
2023-04-07T03:15:20.082Z,27.25
2023-04-07T03:16:43.563Z,31.10
2023-04-07T03:18:08.230Z,32.35
2023-04-07T03:19:55.969Z,27.45
2023-04-07T03:21:19.670Z,25.42
2023-04-07T03:22:42.275Z,27.30
2023-04-07T03:24:21.846Z,28.38
2023-04-07T03:25:44.130Z,29.63
2023-04-07T03:27:12.782Z,30.23
2023-04-07T03:28:39.969Z,30.63
2023-04-07T03:30:09.066Z,33.25
2023-04-07T03:31:31.609Z,32.20
2023-04-07T03:32:54.361Z,33.60
2023-04-07T03:34:27.011Z,30.20
2023-04-07T03:35:56.637Z,33.80
2023-04-07T03:37:20.648Z,32.63
2023-04-07T03:38:46.570Z,33.47
2023-04-07T03:40:10.484Z,37.05
2023-04-07T03:41:33.775Z,32.17
2023-04-07T03:42:57.525Z,36.17
2023-04-07T03:44:22.274Z,33.15
2023-04-07T03:45:48.193Z,36.22
2023-04-07T03:47:12.219Z,34.38
2023-04-07T03:48:34.507Z,35.60
2023-04-07T03:49:59.969Z,31.63
2023-04-07T03:51:24.595Z,35.05
2023-04-07T03:52:52.031Z,30.10
2023-04-07T03:54:18.559Z,32.83
2023-04-07T03:55:40.873Z,34.72
2023-04-07T03:57:10.917Z,36.42
2023-04-07T03:58:37.529Z,35.35
2023-04-07T03:59:59.976Z,33.38
2023-04-07T04:01:29.456Z,28.52
2023-04-07T04:02:53.890Z,32.00
2023-04-07T04:04:15.656Z,33.72
2023-04-07T04:05:38.517Z,37.55
2023-04-07T04:07:03.541Z,33.88
2023-04-07T04:09:56.404Z,31.55
2023-04-07T04:11:17.974Z,30.42
2023-04-07T04:12:52.792Z,34.65
2023-04-07T04:14:33.827Z,34.92
2023-04-07T04:15:58.369Z,32.40
2023-04-07T04:17:19.335Z,32.08
2023-04-07T04:18:42.686Z,32.28
2023-04-07T04:20:07.752Z,32.83
2023-04-07T04:21:37.928Z,28.80
2023-04-07T04:23:07.136Z,34.03
2023-04-07T04:24:28.851Z,36.20
2023-04-07T04:26:00.290Z,32.42
2023-04-07T04:27:23.495Z,32.33
2023-04-07T04:28:54.584Z,31.42
2023-04-07T04:30:29.099Z,32.17
2023-04-07T04:31:55.129Z,30.17
2023-04-07T04:33:17.302Z,33.07
2023-04-07T04:34:50.804Z,32.63
2023-04-07T04:36:12.105Z,26.58
2023-04-07T04:37:35.995Z,30.63
2023-04-07T04:39:04.100Z,29.58
2023-04-07T04:40:27.873Z,32.42
2023-04-07T04:41:49.557Z,31.63
2023-04-07T04:43:13.301Z,31.92
2023-04-07T04:44:39.296Z,31.10
2023-04-07T04:46:10.732Z,29.15
2023-04-07T04:47:36.269Z,23.10
2023-04-07T04:50:26.421Z,24.58
2023-04-07T04:53:14.078Z,22.02
2023-04-07T04:54:56.720Z,23.90
2023-04-07T04:56:19.388Z,22.13
2023-04-07T04:57:44.045Z,24.55
2023-04-07T04:59:09.517Z,25.38
2023-04-07T05:00:58.329Z,25.27
2023-04-07T05:02:30.129Z,21.73
2023-04-07T05:03:53.207Z,26.27
2023-04-07T05:05:18.746Z,20.95
2023-04-07T05:06:43.982Z,23.63
2023-04-07T05:08:12.518Z,26.45
2023-04-07T05:09:35.008Z,25.10
2023-04-07T05:15:03.446Z,24.48
2023-04-07T05:16:28.794Z,22.77
2023-04-07T05:17:53.440Z,24.38
2023-04-07T05:19:31.033Z,21.38
2023-04-07T05:21:08.503Z,24.17
2023-04-07T05:22:31.068Z,25.65
2023-04-07T05:23:55.056Z,23.38
2023-04-07T05:29:43.403Z,27.20
2023-04-07T05:33:05.852Z,22.30
2023-04-07T05:34:54.354Z,24.15
2023-04-07T05:36:18.139Z,21.75
2023-04-07T05:37:51.342Z,26.13
2023-04-07T05:39:25.923Z,24.77
2023-04-07T05:40:55.813Z,23.83
2023-04-07T05:42:32.320Z,22.88
2023-04-07T05:44:20.606Z,23.08
2023-04-07T05:45:48.968Z,26.15
2023-04-07T05:47:13.800Z,21.95
2023-04-07T05:48:38.382Z,25.48
2023-04-07T05:50:01.077Z,34.13
2023-04-07T05:51:23.439Z,28.23
2023-04-07T05:52:49.310Z,24.67
2023-04-07T05:54:20.230Z,26.38
2023-04-07T05:55:44.526Z,24.80
2023-04-07T05:57:17.488Z,21.75
2023-04-07T05:58:40.740Z,23.83
2023-04-07T06:00:07.760Z,21.80
2023-04-07T06:01:40.268Z,23.75
2023-04-07T06:03:33.531Z,26.23
2023-04-07T06:05:05.600Z,23.92
2023-04-07T06:06:32.091Z,22.40
2023-04-07T06:07:59.573Z,23.98
2023-04-07T06:09:22.938Z,23.10
2023-04-07T06:10:46.842Z,24.48
2023-04-07T06:12:12.478Z,26.83
2023-04-07T06:13:37.742Z,24.30
2023-04-07T06:22:07.388Z,23.02
2023-04-07T06:27:40.709Z,24.98
2023-04-07T06:32:04.171Z,25.42
2023-04-07T06:36:36.923Z,23.63
2023-04-07T06:38:05.044Z,25.38
2023-04-07T06:39:45.935Z,27.88
2023-04-07T06:41:17.154Z,27.58
2023-04-07T06:42:57.841Z,24.48
2023-04-07T06:44:49.878Z,20.88
2023-04-07T06:46:47.171Z,26.40
2023-04-07T06:49:22.243Z,23.35
2023-04-07T06:51:21.521Z,20.85
2023-04-07T06:52:50.635Z,20.92
2023-04-07T06:54:54.154Z,23.42
2023-04-07T07:00:23.520Z,22.60
2023-04-07T07:02:58.313Z,27.20
2023-04-07T07:04:37.756Z,25.35
2023-04-07T07:13:14.012Z,22.83
2023-04-07T07:14:53.392Z,24.55
2023-04-07T07:16:20.407Z,23.63
2023-04-07T07:17:53.597Z,23.60
2023-04-07T07:19:27.198Z,22.77
2023-04-07T07:25:14.481Z,22.98
2023-04-07T07:26:49.040Z,21.25
2023-04-07T07:28:11.534Z,21.33
2023-04-07T07:30:57.135Z,25.05
2023-04-07T07:39:56.548Z,20.67
2023-04-07T07:41:24.305Z,24.70
2023-04-07T08:04:10.480Z,20.08
2023-04-07T08:06:58.994Z,20.33
2023-04-07T08:08:23.678Z,20.85
2023-04-07T08:12:22.664Z,20.48
2023-04-07T08:15:54.985Z,20.02
2023-04-07T08:17:21.838Z,21.40
2023-04-07T08:19:08.095Z,19.27
2023-04-07T08:27:10.683Z,17.63
2023-04-07T08:29:41.778Z,16.90
2023-04-07T08:53:06.388Z,19.05
2023-04-07T09:00:10.402Z,19.00
2023-04-07T09:07:44.463Z,21.83
2023-04-07T09:09:16.946Z,20.52
2023-04-07T09:10:53.477Z,19.63
2023-04-07T09:12:18.020Z,18.65
2023-04-07T09:13:41.494Z,16.38
2023-04-07T09:15:08.681Z,19.27
2023-04-07T09:16:34.705Z,21.25
2023-04-07T09:18:08.737Z,16.80
2023-04-07T09:20:28.160Z,23.48
2023-04-07T09:21:58.295Z,15.07
2023-04-07T09:23:44.511Z,15.52
2023-04-07T09:25:21.147Z,16.30
2023-04-07T09:26:46.649Z,16.83
2023-04-07T09:28:11.660Z,17.90
2023-04-07T09:30:02.062Z,16.38
2023-04-07T09:31:47.208Z,19.05
2023-04-07T09:33:11.301Z,17.33
2023-04-07T09:34:36.137Z,16.65
2023-04-07T09:35:59.733Z,17.88
2023-04-07T09:37:25.062Z,16.25
2023-04-07T09:39:13.247Z,19.80
2023-04-07T09:40:38.730Z,20.52
2023-04-07T09:42:00.976Z,25.25
2023-04-07T09:43:23.288Z,19.08
2023-04-07T09:44:46.386Z,17.17
2023-04-07T09:46:16.868Z,19.30
2023-04-07T09:47:57.702Z,17.48
2023-04-07T09:49:22.071Z,16.48
2023-04-07T09:51:13.120Z,15.75
2023-04-07T09:52:53.273Z,20.40
2023-04-07T09:54:34.885Z,19.25
2023-04-07T09:56:02.585Z,21.10
2023-04-07T09:57:30.380Z,19.58
2023-04-07T09:58:55.712Z,22.08
2023-04-07T10:00:40.999Z,23.65
2023-04-07T10:02:13.639Z,17.08
2023-04-07T10:04:07.284Z,17.50
2023-04-07T10:06:28.669Z,18.25
2023-04-07T10:07:57.303Z,19.98
2023-04-07T10:09:25.290Z,17.93
2023-04-07T10:10:48.537Z,18.95
2023-04-07T10:12:17.099Z,18.50
2023-04-07T10:17:00.163Z,14.63
2023-04-07T10:21:45.058Z,17.88
2023-04-07T10:23:44.009Z,19.08
2023-04-07T10:25:25.800Z,20.98
2023-04-07T10:27:51.180Z,20.08
2023-04-07T10:29:36.612Z,19.98
2023-04-07T10:31:30.940Z,16.23
2023-04-07T10:32:59.417Z,14.87
2023-04-07T10:34:59.636Z,18.02
2023-04-07T10:45:29.548Z,18.48
2023-04-07T10:51:23.235Z,17.45
2023-04-07T10:52:48.627Z,17.95
2023-04-07T10:54:23.048Z,18.60
2023-04-07T10:56:53.260Z,20.77
2023-04-07T10:59:04.409Z,18.92
2023-04-07T11:01:33.290Z,19.02
2023-04-07T11:02:58.005Z,17.92
2023-04-07T11:04:21.173Z,17.27
2023-04-07T11:08:42.722Z,18.02
2023-04-07T11:12:25.156Z,16.27
2023-04-07T11:14:00.782Z,17.48
2023-04-07T11:15:23.769Z,15.30
2023-04-07T11:20:00.168Z,19.50
2023-04-07T11:22:41.693Z,17.80
2023-04-07T11:27:02.103Z,16.77
2023-04-07T11:28:42.305Z,14.10
2023-04-07T11:30:17.061Z,16.85
2023-04-07T11:38:05.483Z,16.02
2023-04-07T11:39:55.852Z,16.48
2023-04-07T11:41:37.627Z,16.70
2023-04-07T11:43:17.392Z,18.00
2023-04-07T11:45:25.505Z,17.25
2023-04-07T11:52:47.239Z,17.75
2023-04-07T11:54:13.945Z,18.65
2023-04-07T11:55:41.111Z,18.75
2023-04-07T11:57:07.126Z,22.17
2023-04-07T11:58:33.035Z,17.80
2023-04-07T12:00:17.286Z,15.25
2023-04-07T12:01:45.309Z,21.30
2023-04-07T12:03:16.360Z,22.55
2023-04-07T12:28:01.617Z,17.77
2023-04-07T13:00:57.029Z,16.52
2023-04-07T13:12:17.268Z,15.60
2023-04-07T13:47:47.038Z,17.48
2023-04-07T13:49:16.488Z,16.67
2023-04-07T13:50:42.941Z,23.08
2023-04-07T13:52:12.292Z,19.00
2023-04-07T13:53:43.982Z,19.35
2023-04-07T13:55:25.043Z,23.25
2023-04-07T13:56:49.091Z,18.35
2023-04-07T13:59:02.305Z,16.77
2023-04-07T14:00:27.865Z,22.13
2023-04-07T14:01:56.141Z,17.15
2023-04-07T14:03:21.174Z,18.75
2023-04-07T14:04:49.537Z,17.85
2023-04-07T14:06:12.025Z,20.67
2023-04-07T14:07:34.691Z,17.65
2023-04-07T14:09:29.191Z,18.33
2023-04-07T14:10:51.642Z,19.98
2023-04-07T14:12:14.379Z,16.45
2023-04-07T14:14:00.652Z,17.13
2023-04-07T14:15:28.641Z,18.33
2023-04-07T14:17:29.965Z,16.40
2023-04-07T14:23:04.248Z,18.33
2023-04-07T14:24:31.208Z,20.25
2023-04-07T14:25:58.967Z,22.25
2023-04-07T14:27:22.563Z,17.50
2023-04-07T14:28:55.165Z,17.38
2023-04-07T14:30:37.669Z,21.08
2023-04-07T14:33:39.295Z,22.40
2023-04-07T14:34:19.676Z,20.63
2023-04-07T14:39:20.199Z,21.50
2023-04-07T14:44:01.088Z,23.70
2023-04-07T14:46:15.426Z,21.52
2023-04-07T14:48:28.743Z,30.23
2023-04-07T14:51:09.602Z,24.20
2023-04-07T14:54:53.327Z,22.60
2023-04-07T14:56:58.670Z,22.88
2023-04-07T14:58:41.039Z,25.85
2023-04-07T15:17:55.509Z,25.02
2023-04-07T15:34:51.681Z,21.83
2023-04-07T15:39:49.041Z,26.88
2023-04-07T15:41:27.680Z,24.45
2023-04-07T15:45:15.695Z,28.25
2023-04-07T15:46:56.837Z,30.67
2023-04-07T15:52:40.213Z,26.60
2023-04-07T15:59:35.730Z,25.95
2023-04-07T16:01:05.663Z,24.63
2023-04-07T16:02:34.298Z,25.55
2023-04-07T16:03:59.094Z,23.52
2023-04-07T16:11:07.519Z,27.30
2023-04-07T16:13:47.136Z,24.38
2023-04-07T16:18:17.500Z,29.52
2023-04-07T16:20:19.876Z,27.90
2023-04-07T16:22:59.735Z,24.17
2023-04-07T16:24:25.845Z,23.65
2023-04-07T16:26:08.610Z,26.05
2023-04-07T16:27:36.109Z,28.08
2023-04-07T16:28:58.834Z,31.70
2023-04-07T16:30:26.076Z,27.05
2023-04-07T16:31:55.429Z,23.35
2023-04-07T16:33:21.033Z,22.80
2023-04-07T16:38:58.083Z,27.75
2023-04-07T16:40:26.610Z,28.40
2023-04-07T16:41:49.399Z,26.52
2023-04-07T16:43:20.271Z,28.30
2023-04-07T16:44:43.488Z,31.52
2023-04-07T16:46:36.784Z,25.40
2023-04-07T16:50:05.595Z,33.08
2023-04-07T16:51:32.457Z,26.70
2023-04-07T16:52:57.809Z,28.65
2023-04-07T16:55:39.098Z,26.73
2023-04-07T16:57:10.120Z,29.67
2023-04-07T16:58:51.310Z,32.25
2023-04-07T17:00:25.577Z,26.70
2023-04-07T17:02:08.445Z,30.85
2023-04-07T17:04:04.397Z,29.92
2023-04-07T17:05:48.793Z,27.67
2023-04-07T17:10:38.958Z,29.52
2023-04-07T17:12:09.000Z,30.30
2023-04-07T17:20:11.682Z,26.05
2023-04-07T17:22:01.898Z,26.55
2023-04-07T17:23:58.135Z,26.75
2023-04-07T17:25:28.015Z,25.15
2023-04-07T17:47:41.517Z,31.73
2023-04-07T18:02:00.188Z,24.50
2023-04-07T18:19:38.582Z,31.23
2023-04-07T18:21:03.707Z,33.28
2023-04-07T18:24:18.262Z,30.23
2023-04-07T18:25:40.420Z,27.85
2023-04-07T18:38:09.648Z,32.08
2023-04-07T18:39:45.905Z,33.15
2023-04-07T18:41:14.436Z,32.35
2023-04-07T18:50:10.895Z,34.05
2023-04-07T18:51:36.074Z,72.85
2023-04-07T18:53:02.048Z,35.83
2023-04-07T18:54:29.285Z,31.15
2023-04-07T18:55:51.955Z,31.77
2023-04-07T18:57:14.841Z,31.02
2023-04-07T18:58:44.030Z,35.85
2023-04-07T19:00:42.764Z,31.73
2023-04-07T19:05:48.113Z,31.75
2023-04-07T19:07:13.312Z,31.52
2023-04-07T19:09:51.606Z,31.95
2023-04-07T19:11:43.661Z,33.35
2023-04-07T19:13:23.931Z,32.95
2023-04-07T19:14:50.184Z,31.10
2023-04-07T19:16:19.038Z,32.38
2023-04-07T19:19:22.511Z,32.28
2023-04-07T19:20:52.942Z,30.38
2023-04-07T19:22:35.159Z,33.03
2023-04-07T19:23:59.761Z,40.00
2023-04-07T19:25:35.376Z,33.47
2023-04-07T19:30:17.579Z,29.88
2023-04-07T20:16:27.392Z,47.78
2023-04-07T22:28:27.468Z,28.05
2023-04-07T22:30:10.283Z,28.58
2023-04-07T22:31:38.512Z,27.38
2023-04-07T22:35:36.398Z,24.23
2023-04-07T22:37:14.175Z,29.58
2023-04-07T22:38:51.636Z,27.45
2023-04-07T22:40:21.877Z,29.75
2023-04-07T22:42:06.760Z,32.25
2023-04-07T22:44:22.090Z,30.63
2023-04-07T22:56:41.145Z,22.98
2023-04-07T23:07:42.718Z,27.00
2023-04-07T23:17:55.567Z,25.13
2023-04-07T23:26:16.537Z,32.03
2023-04-07T23:33:39.096Z,32.15
2023-04-07T23:35:36.796Z,30.52
2023-04-07T23:40:27.565Z,29.17
2023-04-07T23:42:09.456Z,30.00
2023-04-07T23:44:13.666Z,26.15
2023-04-07T23:45:56.572Z,28.30
2023-04-07T23:48:09.347Z,30.33
2023-04-07T23:50:07.815Z,28.83
2023-04-07T23:54:56.738Z,31.83
2023-04-07T23:56:21.860Z,32.95
2023-04-07T23:57:55.744Z,34.50
2023-04-07T23:59:20.993Z,35.20
